createdAt,value
2018-02-17T00:00:28.533Z,70.73
2018-02-17T00:02:56.144Z,82.22
2018-02-17T00:05:24.553Z,99.62
2018-02-17T00:07:52.247Z,101.57
2018-02-17T00:10:20.652Z,97.57
2018-02-17T00:12:48.357Z,95.47
2018-02-17T00:15:15.912Z,109.87
2018-02-17T00:17:44.330Z,152.68
2018-02-17T00:20:11.934Z,139.20
2018-02-17T00:22:39.502Z,186.20
2018-02-17T00:25:07.400Z,273.87
2018-02-17T00:27:34.984Z,285.42
2018-02-17T00:30:02.588Z,254.87
2018-02-17T00:32:31.861Z,396.42
2018-02-17T00:35:00.143Z,148.38
2018-02-17T00:37:28.495Z,470.70
2018-02-17T00:39:56.922Z,346.08
2018-02-17T00:42:24.652Z,332.48
2018-02-17T00:44:52.289Z,299.75
2018-02-17T00:47:19.872Z,154.18
2018-02-17T00:49:47.453Z,200.57
2018-02-17T00:52:15.873Z,312.80
2018-02-17T00:54:43.447Z,193.43
2018-02-17T00:57:11.066Z,267.70
2018-02-17T00:59:38.696Z,157.60
2018-02-17T01:02:06.451Z,189.40
2018-02-17T01:04:34.085Z,180.82
2018-02-17T01:07:02.547Z,287.42
2018-02-17T01:09:31.440Z,157.30
2018-02-17T01:11:59.060Z,210.75
2018-02-17T01:14:26.656Z,266.42
2018-02-17T01:16:54.247Z,177.02
2018-02-17T01:19:21.814Z,374.02
2018-02-17T01:21:50.262Z,204.10
2018-02-17T01:24:17.830Z,237.93
2018-02-17T01:26:45.414Z,226.70
2018-02-17T01:29:13.062Z,339.88
2018-02-17T01:31:40.677Z,346.50
2018-02-17T01:34:08.347Z,220.00
2018-02-17T01:36:35.928Z,235.75
2018-02-17T01:39:05.200Z,211.45
2018-02-17T01:41:32.817Z,228.32
2018-02-17T01:44:01.248Z,161.62
2018-02-17T01:46:28.801Z,155.70
2018-02-17T01:48:56.429Z,149.65
2018-02-17T01:51:24.021Z,240.73
2018-02-17T01:53:51.639Z,140.30
2018-02-17T01:56:19.272Z,103.82
2018-02-17T01:58:46.988Z,203.73
2018-02-17T02:01:14.560Z,163.00
2018-02-17T02:03:42.355Z,204.27
2018-02-17T02:06:09.935Z,217.18
2018-02-17T02:08:37.491Z,182.18
2018-02-17T02:11:05.185Z,193.37
2018-02-17T02:13:32.753Z,331.13
2018-02-17T02:16:01.578Z,274.35
2018-02-17T02:18:29.226Z,183.55
2018-02-17T02:20:56.827Z,194.75
2018-02-17T02:23:26.277Z,144.13
2018-02-17T02:25:54.611Z,251.48
2018-02-17T02:28:22.284Z,198.20
2018-02-17T02:30:50.677Z,222.60
2018-02-17T02:33:18.984Z,116.60
2018-02-17T02:35:46.615Z,129.27
2018-02-17T02:38:14.207Z,208.40
2018-02-17T02:40:42.650Z,160.57
2018-02-17T02:43:10.309Z,106.22
2018-02-17T02:45:39.395Z,169.73
2018-02-17T02:48:06.973Z,176.10
2018-02-17T02:50:35.301Z,93.25
2018-02-17T02:53:02.905Z,121.00
2018-02-17T02:55:31.082Z,138.73
2018-02-17T02:57:58.704Z,157.00
2018-02-17T03:00:26.309Z,117.47
2018-02-17T03:02:54.657Z,144.30
2018-02-17T03:05:22.269Z,135.25
2018-02-17T03:07:49.896Z,144.27
2018-02-17T03:10:17.469Z,138.82
2018-02-17T03:12:45.397Z,128.75
2018-02-17T03:15:13.720Z,132.05
2018-02-17T03:17:42.222Z,131.25
2018-02-17T03:20:09.826Z,126.30
2018-02-17T03:22:37.473Z,118.13
2018-02-17T03:25:05.825Z,116.68
2018-02-17T03:27:34.157Z,131.80
2018-02-17T03:30:02.148Z,141.27
2018-02-17T03:32:31.004Z,166.62
2018-02-17T03:34:58.591Z,155.65
2018-02-17T03:37:26.157Z,94.95
2018-02-17T03:39:53.767Z,162.45
2018-02-17T03:42:21.417Z,124.47
2018-02-17T03:44:50.216Z,159.10
2018-02-17T03:47:18.527Z,121.78
2018-02-17T03:49:46.135Z,104.72
2018-02-17T03:52:14.495Z,109.50
2018-02-17T03:54:42.062Z,126.43
2018-02-17T03:57:09.632Z,85.05
2018-02-17T03:59:37.162Z,118.95
2018-02-17T04:02:04.766Z,118.13
2018-02-17T04:04:32.331Z,105.45
2018-02-17T04:07:00.678Z,110.88
2018-02-17T04:09:28.283Z,137.50
2018-02-17T04:11:55.841Z,117.15
2018-02-17T04:14:23.451Z,116.82
2018-02-17T04:16:50.989Z,127.50
2018-02-17T04:19:18.580Z,93.55
2018-02-17T04:21:46.918Z,79.82
2018-02-17T04:24:14.480Z,103.12
2018-02-17T04:26:42.148Z,111.45
2018-02-17T04:29:09.731Z,103.95
2018-02-17T04:31:37.315Z,120.22
2018-02-17T04:34:05.064Z,89.87
2018-02-17T04:36:32.682Z,108.12
2018-02-17T04:39:01.101Z,113.45
2018-02-17T04:41:31.037Z,105.47
2018-02-17T04:43:59.272Z,122.97
2018-02-17T04:49:35.079Z,103.38
2018-02-17T04:52:08.341Z,96.50
2018-02-17T04:54:36.485Z,131.68
2018-02-17T04:57:06.727Z,83.68
2018-02-17T05:02:47.635Z,68.43
2018-02-17T05:05:17.036Z,93.57
2018-02-17T05:07:46.512Z,78.10
2018-02-17T05:10:14.077Z,79.85
2018-02-17T05:12:41.678Z,62.28
2018-02-17T05:15:25.720Z,71.07
2018-02-17T05:20:59.450Z,62.17
2018-02-17T05:23:28.814Z,64.72
2018-02-17T05:25:57.923Z,61.95
2018-02-17T05:28:43.052Z,64.37
2018-02-17T05:31:10.672Z,78.07
2018-02-17T05:33:41.254Z,64.12
2018-02-17T05:36:14.364Z,72.32
2018-02-17T05:38:42.670Z,63.22
2018-02-17T05:44:13.501Z,68.97
2018-02-17T05:46:45.677Z,70.20
2018-02-17T05:49:25.879Z,74.82
2018-02-17T05:51:54.210Z,66.43
2018-02-17T05:54:21.747Z,67.53
2018-02-17T05:56:49.341Z,76.45
2018-02-17T05:59:16.879Z,64.25
2018-02-17T06:01:45.248Z,75.72
2018-02-17T06:04:13.562Z,75.50
2018-02-17T06:06:41.471Z,73.12
2018-02-17T06:09:09.102Z,83.47
2018-02-17T06:11:37.026Z,84.13
2018-02-17T06:14:05.251Z,86.45
2018-02-17T06:16:32.855Z,78.32
2018-02-17T06:19:01.209Z,96.65
2018-02-17T06:21:29.566Z,106.68
2018-02-17T06:23:57.116Z,99.40
2018-02-17T06:26:25.638Z,125.30
2018-02-17T06:28:53.215Z,127.55
2018-02-17T06:31:20.972Z,127.57
2018-02-17T06:33:49.146Z,124.70
2018-02-17T06:36:17.498Z,139.82
2018-02-17T06:38:46.822Z,134.48
2018-02-17T06:41:14.431Z,179.80
2018-02-17T06:43:42.733Z,170.30
2018-02-17T06:46:10.369Z,200.50
2018-02-17T06:48:37.910Z,187.30
2018-02-17T06:51:06.590Z,155.20
2018-02-17T06:53:34.851Z,182.37
2018-02-17T06:56:02.422Z,171.93
2018-02-17T06:58:30.357Z,126.47
2018-02-17T07:00:57.929Z,186.35
2018-02-17T07:03:26.543Z,226.05
2018-02-17T07:05:54.138Z,225.05
2018-02-17T07:08:21.795Z,205.80
2018-02-17T07:10:50.215Z,220.43
2018-02-17T07:13:17.770Z,212.63
2018-02-17T07:15:45.988Z,167.80
2018-02-17T07:18:14.482Z,164.45
2018-02-17T07:20:42.045Z,182.10
2018-02-17T07:23:09.812Z,202.35
2018-02-17T07:25:38.121Z,175.93
2018-02-17T07:28:06.525Z,183.48
2018-02-17T07:30:35.405Z,164.37
2018-02-17T07:33:03.795Z,217.43
2018-02-17T07:35:31.339Z,171.73
2018-02-17T07:37:58.931Z,215.73
2018-02-17T07:40:26.630Z,173.40
2018-02-17T07:42:54.286Z,220.30
2018-02-17T07:45:21.844Z,114.80
2018-02-17T07:47:49.441Z,207.25
2018-02-17T07:50:17.359Z,184.65
2018-02-17T07:52:44.957Z,184.02
2018-02-17T07:55:12.662Z,177.87
2018-02-17T07:57:40.312Z,166.60
2018-02-17T08:00:07.873Z,154.50
2018-02-17T08:02:35.910Z,147.37
2018-02-17T08:05:03.521Z,118.72
2018-02-17T08:07:31.213Z,133.12
2018-02-17T08:09:58.758Z,127.87
2018-02-17T08:12:26.468Z,105.28
2018-02-17T08:14:54.842Z,131.50
2018-02-17T08:17:23.193Z,80.87
2018-02-17T08:19:51.577Z,107.53
2018-02-17T08:22:19.126Z,110.65
2018-02-17T08:24:47.212Z,105.87
2018-02-17T08:27:14.768Z,107.93
2018-02-17T08:29:42.432Z,85.15
2018-02-17T08:32:10.798Z,101.00
2018-02-17T08:34:39.115Z,60.42
2018-02-17T08:37:07.999Z,76.78
2018-02-17T08:39:37.122Z,86.47
2018-02-17T08:42:05.487Z,62.33
2018-02-17T08:44:33.080Z,53.30
2018-02-17T08:47:01.627Z,52.53
2018-02-17T08:49:29.212Z,55.92
2018-02-17T08:51:57.615Z,55.70
2018-02-17T08:54:25.321Z,62.67
2018-02-17T08:56:53.648Z,56.67
2018-02-17T08:59:21.425Z,44.80
2018-02-17T09:01:49.844Z,43.55
2018-02-17T09:04:17.477Z,47.97
2018-02-17T09:06:45.095Z,39.15
2018-02-17T09:09:13.463Z,34.70
2018-02-17T09:11:42.281Z,39.90
2018-02-17T09:14:10.921Z,36.15
2018-02-17T09:16:38.708Z,36.25
2018-02-17T09:19:07.903Z,34.47
2018-02-17T09:21:36.344Z,37.20
2018-02-17T09:24:03.908Z,32.90
2018-02-17T09:26:32.294Z,38.25
2018-02-17T09:29:01.912Z,36.92
2018-02-17T09:31:29.604Z,36.55
2018-02-17T09:33:57.168Z,35.83
2018-02-17T09:36:25.539Z,39.55
2018-02-17T09:38:53.131Z,41.37
2018-02-17T09:41:20.966Z,33.63
2018-02-17T09:43:48.595Z,30.25
2018-02-17T09:46:16.142Z,27.80
2018-02-17T09:48:43.726Z,28.17
2018-02-17T09:51:11.360Z,40.22
2018-02-17T09:53:39.885Z,28.48
2018-02-17T09:56:08.303Z,27.60
2018-02-17T09:58:36.887Z,44.00
2018-02-17T10:01:05.099Z,29.35
2018-02-17T10:03:32.699Z,28.73
2018-02-17T10:06:00.339Z,38.92
2018-02-17T10:08:29.126Z,29.10
2018-02-17T10:10:57.430Z,31.95
2018-02-17T10:13:25.095Z,36.95
2018-02-17T10:15:52.658Z,27.75
2018-02-17T10:18:20.225Z,26.60
2018-02-17T10:20:47.860Z,28.62
2018-02-17T10:23:16.209Z,26.08
2018-02-17T10:25:44.609Z,23.55
2018-02-17T10:28:12.331Z,21.62
2018-02-17T10:30:40.709Z,23.17
2018-02-17T10:33:08.277Z,26.90
2018-02-17T10:35:38.099Z,20.67
2018-02-17T10:38:06.084Z,23.95
2018-02-17T10:40:33.733Z,24.55
2018-02-17T10:43:01.337Z,24.70
2018-02-17T10:45:29.250Z,28.60
2018-02-17T10:47:57.885Z,20.35
2018-02-17T10:50:25.550Z,19.65
2018-02-17T10:52:53.169Z,20.45
2018-02-17T10:55:20.756Z,17.55
2018-02-17T10:57:48.366Z,15.82
2018-02-17T11:00:16.937Z,16.27
2018-02-17T11:02:45.550Z,15.32
2018-02-17T11:05:20.855Z,12.68
2018-02-17T11:07:49.400Z,14.77
2018-02-17T11:10:17.008Z,19.25
2018-02-17T11:12:54.610Z,14.95
2018-02-17T11:15:22.482Z,15.57
2018-02-17T11:17:50.154Z,13.27
2018-02-17T11:20:17.807Z,14.30
2018-02-17T11:22:45.528Z,19.10
2018-02-17T11:25:13.883Z,14.95
2018-02-17T11:27:41.512Z,19.65
2018-02-17T11:30:28.434Z,17.77
2018-02-17T11:32:56.341Z,16.37
2018-02-17T11:35:24.790Z,19.75
2018-02-17T11:37:52.401Z,27.70
2018-02-17T11:40:20.024Z,23.58
2018-02-17T11:42:47.673Z,23.15
2018-02-17T11:45:15.556Z,22.23
2018-02-17T11:47:43.374Z,20.70
2018-02-17T11:50:11.161Z,35.08
2018-02-17T11:52:38.781Z,29.15
2018-02-17T11:55:06.352Z,31.75
2018-02-17T11:57:34.309Z,24.77
2018-02-17T12:00:02.344Z,29.33
2018-02-17T12:02:30.729Z,32.10
2018-02-17T12:04:59.163Z,32.03
2018-02-17T12:07:26.861Z,34.67
2018-02-17T12:09:55.349Z,39.35
2018-02-17T12:12:23.273Z,32.65
2018-02-17T12:14:51.170Z,39.85
2018-02-17T12:17:18.232Z,33.58
2018-02-17T12:20:05.742Z,38.90
2018-02-17T12:22:34.421Z,40.97
2018-02-17T12:25:02.835Z,40.50
2018-02-17T12:27:30.620Z,35.72
2018-02-17T12:29:58.368Z,39.22
2018-02-17T12:32:25.948Z,32.38
2018-02-17T12:34:53.531Z,40.47
2018-02-17T12:40:09.741Z,33.40
2018-02-17T12:42:38.091Z,36.15
2018-02-17T12:47:59.203Z,32.75
2018-02-17T12:50:39.901Z,37.35
2018-02-17T12:53:07.579Z,39.22
2018-02-17T12:55:36.096Z,40.72
2018-02-17T12:58:23.188Z,44.00
2018-02-17T13:00:50.770Z,37.10
2018-02-17T13:03:18.853Z,44.75
2018-02-17T13:05:46.801Z,40.38
2018-02-17T13:08:14.354Z,43.58
2018-02-17T13:10:42.669Z,39.83
2018-02-17T13:13:10.321Z,40.92
2018-02-17T13:15:38.100Z,42.97
2018-02-17T13:18:05.848Z,39.05
2018-02-17T13:20:33.542Z,42.00
2018-02-17T13:23:01.289Z,37.25
2018-02-17T13:25:29.039Z,40.67
2018-02-17T13:27:56.599Z,45.33
2018-02-17T13:30:24.198Z,29.00
2018-02-17T13:32:51.754Z,25.37
2018-02-17T13:35:19.346Z,31.90
2018-02-17T13:37:48.942Z,27.50
2018-02-17T13:40:18.240Z,25.75
2018-02-17T13:42:46.595Z,23.83
2018-02-17T13:45:14.179Z,29.12
2018-02-17T13:47:42.705Z,27.37
2018-02-17T13:50:10.369Z,26.75
2018-02-17T13:52:38.505Z,33.05
2018-02-17T13:55:06.138Z,26.67
2018-02-17T13:57:38.391Z,28.65
2018-02-17T14:00:06.761Z,29.05
2018-02-17T14:02:35.844Z,33.20
2018-02-17T14:05:03.430Z,27.95
2018-02-17T14:07:31.069Z,28.60
2018-02-17T14:09:59.437Z,28.75
2018-02-17T14:12:28.000Z,29.95
2018-02-17T14:14:56.562Z,34.03
2018-02-17T14:17:24.886Z,34.20
2018-02-17T14:19:52.794Z,35.55
2018-02-17T14:22:20.454Z,34.10
2018-02-17T14:24:48.186Z,33.80
2018-02-17T14:27:15.738Z,42.47
2018-02-17T14:29:44.048Z,38.92
2018-02-17T14:32:12.426Z,33.05
2018-02-17T14:34:41.807Z,33.92
2018-02-17T14:37:09.521Z,37.22
2018-02-17T14:39:37.099Z,38.83
2018-02-17T14:42:04.788Z,32.50
2018-02-17T14:44:32.464Z,39.60
2018-02-17T14:47:00.126Z,40.20
2018-02-17T14:49:28.016Z,35.97
2018-02-17T14:51:55.665Z,32.88
2018-02-17T14:54:24.073Z,33.58
2018-02-17T14:56:51.704Z,32.63
2018-02-17T14:59:20.173Z,37.67
2018-02-17T15:01:48.841Z,35.42
2018-02-17T15:04:16.421Z,39.88
2018-02-17T15:06:44.773Z,35.08
2018-02-17T15:09:12.356Z,34.00
2018-02-17T15:11:40.783Z,42.40
2018-02-17T15:14:08.435Z,33.42
2018-02-17T15:16:36.085Z,33.90
2018-02-17T15:19:03.656Z,31.95
2018-02-17T15:21:31.763Z,31.75
2018-02-17T15:23:59.376Z,37.10
2018-02-17T15:26:27.183Z,37.22
2018-02-17T15:28:55.514Z,31.25
2018-02-17T15:31:23.116Z,31.23
2018-02-17T15:33:50.981Z,27.13
2018-02-17T15:36:18.655Z,27.52
2018-02-17T15:38:47.363Z,32.00
2018-02-17T15:41:14.907Z,29.75
2018-02-17T15:43:43.224Z,29.67
2018-02-17T15:46:10.942Z,27.77
2018-02-17T15:48:38.563Z,23.83
2018-02-17T15:51:06.227Z,28.10
2018-02-17T15:53:33.895Z,28.38
2018-02-17T15:56:01.538Z,23.83
2018-02-17T15:58:30.214Z,28.95
2018-02-17T16:00:58.190Z,23.73
2018-02-17T16:03:25.818Z,28.50
2018-02-17T16:05:53.395Z,21.00
2018-02-17T16:08:20.949Z,31.10
2018-02-17T16:10:48.940Z,27.35
2018-02-17T16:13:17.420Z,25.23
2018-02-17T16:15:44.969Z,30.62
2018-02-17T16:18:13.028Z,19.98
2018-02-17T16:20:40.607Z,19.45
2018-02-17T16:23:08.214Z,27.60
2018-02-17T16:25:35.893Z,25.70
2018-02-17T16:28:03.485Z,25.00
2018-02-17T16:30:31.087Z,34.83
2018-02-17T16:32:59.414Z,28.17
2018-02-17T16:35:27.279Z,36.15
2018-02-17T16:37:55.045Z,29.85
2018-02-17T16:40:22.634Z,28.90
2018-02-17T16:42:50.227Z,31.75
2018-02-17T16:45:18.594Z,27.90
2018-02-17T16:47:47.033Z,31.17
2018-02-17T16:50:14.612Z,29.02
2018-02-17T16:52:42.442Z,30.12
2018-02-17T16:55:10.134Z,41.60
2018-02-17T16:57:37.925Z,30.25
2018-02-17T17:00:06.271Z,31.48
2018-02-17T17:02:33.899Z,40.92
2018-02-17T17:05:01.539Z,34.20
2018-02-17T17:07:29.174Z,40.10
2018-02-17T17:09:57.516Z,39.15
2018-02-17T17:12:25.125Z,33.38
2018-02-17T17:14:52.735Z,53.42
2018-02-17T17:17:21.093Z,77.37
2018-02-17T17:19:49.662Z,34.40
2018-02-17T17:22:17.547Z,37.78
2018-02-17T17:24:45.141Z,39.25
2018-02-17T17:27:12.782Z,37.30
2018-02-17T17:29:41.866Z,35.67
2018-02-17T17:32:09.722Z,41.58
2018-02-17T17:34:37.396Z,40.42
2018-02-17T17:37:04.947Z,33.50
2018-02-17T17:39:34.451Z,47.70
2018-02-17T17:42:02.045Z,37.13
2018-02-17T17:44:30.460Z,40.90
2018-02-17T17:46:58.007Z,40.55
2018-02-17T17:49:26.621Z,35.53
2018-02-17T17:51:55.363Z,39.03
2018-02-17T17:54:23.840Z,40.22
2018-02-17T17:56:51.508Z,42.70
2018-02-17T17:59:19.934Z,41.97
2018-02-17T18:01:47.578Z,44.15
2018-02-17T18:04:15.167Z,42.50
2018-02-17T18:06:42.975Z,47.92
2018-02-17T18:09:10.663Z,42.97
2018-02-17T18:11:38.238Z,46.53
2018-02-17T18:14:05.866Z,54.42
2018-02-17T18:16:33.434Z,52.47
2018-02-17T18:19:01.146Z,49.72
2018-02-17T18:21:28.924Z,44.55
2018-02-17T18:23:57.345Z,49.13
2018-02-17T18:26:24.966Z,46.83
2018-02-17T18:28:55.374Z,51.55
2018-02-17T18:31:23.179Z,52.22
2018-02-17T18:33:50.873Z,52.20
2018-02-17T18:36:18.646Z,43.58
2018-02-17T18:38:46.326Z,49.72
2018-02-17T18:41:13.928Z,53.15
2018-02-17T18:43:41.618Z,49.72
2018-02-17T18:46:11.099Z,51.40
2018-02-17T18:48:38.693Z,47.15
2018-02-17T18:51:06.281Z,53.38
2018-02-17T18:53:34.605Z,51.03
2018-02-17T18:56:02.178Z,47.30
2018-02-17T18:58:30.803Z,57.10
2018-02-17T19:00:59.303Z,59.72
2018-02-17T19:03:26.895Z,64.28
2018-02-17T19:05:54.440Z,69.90
2018-02-17T19:08:22.256Z,63.20
2018-02-17T19:10:50.588Z,66.37
2018-02-17T19:13:18.728Z,60.88
2018-02-17T19:15:46.663Z,61.03
2018-02-17T19:18:14.342Z,64.37
2018-02-17T19:20:42.692Z,64.32
2018-02-17T19:23:11.096Z,65.87
2018-02-17T19:25:38.717Z,60.12
2018-02-17T19:28:06.643Z,59.80
2018-02-17T19:30:34.271Z,59.22
2018-02-17T19:33:02.156Z,58.47
2018-02-17T19:35:29.825Z,63.58
2018-02-17T19:37:58.914Z,64.78
2018-02-17T19:40:26.611Z,67.15
2018-02-17T19:42:54.396Z,62.95
2018-02-17T19:45:22.112Z,70.07
2018-02-17T19:47:50.014Z,60.33
2018-02-17T19:50:17.923Z,56.47
2018-02-17T19:52:46.304Z,57.35
2018-02-17T19:55:13.984Z,51.20
2018-02-17T19:57:41.629Z,61.53
2018-02-17T20:00:10.217Z,59.20
2018-02-17T20:02:38.723Z,59.60
2018-02-17T20:05:08.405Z,61.13
2018-02-17T20:07:35.972Z,66.45
2018-02-17T20:10:03.561Z,53.42
2018-02-17T20:12:31.260Z,57.80
2018-02-17T20:14:59.588Z,67.43
2018-02-17T20:17:28.392Z,55.53
2018-02-17T20:19:56.016Z,61.95
2018-02-17T20:22:23.723Z,53.05
2018-02-17T20:24:52.243Z,52.47
2018-02-17T20:27:19.824Z,54.35
2018-02-17T20:29:47.549Z,50.10
2018-02-17T20:32:15.995Z,54.05
2018-02-17T20:34:43.652Z,49.83
2018-02-17T20:37:11.267Z,57.90
2018-02-17T20:39:38.959Z,55.05
2018-02-17T20:42:06.724Z,57.20
2018-02-17T20:44:34.357Z,58.67
2018-02-17T20:47:02.020Z,58.22
2018-02-17T20:49:29.679Z,55.00
2018-02-17T20:51:57.295Z,55.65
2018-02-17T20:54:24.961Z,57.83
2018-02-17T20:56:55.428Z,58.87
2018-02-17T20:59:23.100Z,68.60
2018-02-17T21:01:55.841Z,60.20
2018-02-17T21:04:24.192Z,55.22
2018-02-17T21:06:52.074Z,62.10
2018-02-17T21:09:24.040Z,60.25
2018-02-17T21:11:52.009Z,56.20
2018-02-17T21:14:21.074Z,57.53
2018-02-17T21:16:51.118Z,55.55
2018-02-17T21:19:18.946Z,54.03
2018-02-17T21:21:46.600Z,56.35
2018-02-17T21:24:14.191Z,55.92
2018-02-17T21:26:41.832Z,50.42
2018-02-17T21:29:09.852Z,53.08
2018-02-17T21:31:37.455Z,57.72
2018-02-17T21:34:05.069Z,55.25
2018-02-17T21:36:33.711Z,51.17
2018-02-17T21:39:01.984Z,52.33
2018-02-17T21:41:30.579Z,49.53
2018-02-17T21:43:58.185Z,54.33
2018-02-17T21:46:25.926Z,47.35
2018-02-17T21:48:53.538Z,49.08
2018-02-17T21:51:21.251Z,48.47
2018-02-17T21:53:50.557Z,46.37
2018-02-17T21:56:18.169Z,47.40
2018-02-17T21:58:46.209Z,49.05
2018-02-17T22:01:13.788Z,53.53
2018-02-17T22:03:42.190Z,51.97
2018-02-17T22:06:09.859Z,57.42
2018-02-17T22:08:38.174Z,46.42
2018-02-17T22:11:06.125Z,47.65
2018-02-17T22:13:33.793Z,52.47
2018-02-17T22:16:01.864Z,45.00
2018-02-17T22:18:29.479Z,42.95
2018-02-17T22:20:57.075Z,44.30
2018-02-17T22:23:24.648Z,46.05
2018-02-17T22:25:52.264Z,46.37
2018-02-17T22:28:19.912Z,51.13
2018-02-17T22:30:47.508Z,43.83
2018-02-17T22:33:15.215Z,52.00
2018-02-17T22:35:42.951Z,52.92
2018-02-17T22:38:10.629Z,48.80
2018-02-17T22:40:38.260Z,53.38
2018-02-17T22:43:06.265Z,50.38
2018-02-17T22:45:33.796Z,57.55
2018-02-17T22:48:01.334Z,49.67
2018-02-17T22:50:29.690Z,48.47
2018-02-17T22:52:57.254Z,48.70
2018-02-17T22:55:25.606Z,55.53
2018-02-17T22:57:53.290Z,53.75
2018-02-17T23:00:29.714Z,53.58
2018-02-17T23:02:57.291Z,52.88
2018-02-17T23:05:24.982Z,53.03
2018-02-17T23:07:54.295Z,56.58
2018-02-17T23:10:23.679Z,50.58
2018-02-17T23:12:52.309Z,49.35
2018-02-17T23:15:19.858Z,48.05
2018-02-17T23:17:51.496Z,48.33
2018-02-17T23:20:19.832Z,51.70
2018-02-17T23:22:47.425Z,56.50
2018-02-17T23:25:15.756Z,58.53
2018-02-17T23:27:45.448Z,55.05
2018-02-17T23:30:13.012Z,60.78
2018-02-17T23:32:41.392Z,59.78
2018-02-17T23:35:08.938Z,51.90
2018-02-17T23:37:36.538Z,53.45
2018-02-17T23:40:04.379Z,51.90
2018-02-17T23:42:31.939Z,56.85
2018-02-17T23:44:59.577Z,59.08
2018-02-17T23:47:27.170Z,59.75
2018-02-17T23:49:55.089Z,63.03
2018-02-17T23:52:22.642Z,56.60
2018-02-17T23:54:50.989Z,61.20
2018-02-17T23:57:19.505Z,57.78
2018-02-17T23:59:47.068Z,59.55
